sensor_id;sensor_type;location;lat;lon;timestamp;pressure;altitude;pressure_sealevel;temperature;humidity
76229;BME280;65021;53.174;18.160;2023-01-30T00:01:37;100594.04;;;0.83;85.60
76229;BME280;65021;53.174;18.160;2023-01-30T00:04:03;100590.17;;;0.82;85.55
76229;BME280;65021;53.174;18.160;2023-01-30T00:06:30;100589.86;;;0.80;85.58
76229;BME280;65021;53.174;18.160;2023-01-30T00:08:57;100579.20;;;0.75;85.60
76229;BME280;65021;53.174;18.160;2023-01-30T00:11:24;100575.34;;;0.75;85.62
76229;BME280;65021;53.174;18.160;2023-01-30T00:13:51;100577.14;;;0.77;85.52
76229;BME280;65021;53.174;18.160;2023-01-30T00:16:18;100569.27;;;0.77;85.59
76229;BME280;65021;53.174;18.160;2023-01-30T00:18:45;100561.02;;;0.79;85.54
76229;BME280;65021;53.174;18.160;2023-01-30T00:21:13;100556.34;;;0.78;85.58
76229;BME280;65021;53.174;18.160;2023-01-30T00:23:39;100550.76;;;0.76;85.55
76229;BME280;65021;53.174;18.160;2023-01-30T00:26:07;100546.09;;;0.74;85.57
76229;BME280;65021;53.174;18.160;2023-01-30T00:28:35;100538.55;;;0.73;85.54
76229;BME280;65021;53.174;18.160;2023-01-30T00:31:01;100528.61;;;0.75;85.42
76229;BME280;65021;53.174;18.160;2023-01-30T00:33:29;100528.51;;;0.78;85.48
76229;BME280;65021;53.174;18.160;2023-01-30T00:35:56;100526.52;;;0.77;85.44
76229;BME280;65021;53.174;18.160;2023-01-30T00:38:23;100524.94;;;0.75;85.41
76229;BME280;65021;53.174;18.160;2023-01-30T00:40:50;100518.88;;;0.72;85.44
76229;BME280;65021;53.174;18.160;2023-01-30T00:43:18;100515.16;;;0.72;85.41
76229;BME280;65021;53.174;18.160;2023-01-30T00:46:19;100517.38;;;0.73;85.40
76229;BME280;65021;53.174;18.160;2023-01-30T00:49:06;100505.33;;;0.72;85.40
76229;BME280;65021;53.174;18.160;2023-01-30T00:51:33;100500.89;;;0.71;85.31
76229;BME280;65021;53.174;18.160;2023-01-30T00:54:00;100495.94;;;0.70;85.33
76229;BME280;65021;53.174;18.160;2023-01-30T00:56:26;100484.98;;;0.70;85.39
76229;BME280;65021;53.174;18.160;2023-01-30T00:58:53;100487.16;;;0.67;85.39
76229;BME280;65021;53.174;18.160;2023-01-30T01:01:20;100480.17;;;0.63;85.26
76229;BME280;65021;53.174;18.160;2023-01-30T01:03:46;100476.25;;;0.59;85.43
76229;BME280;65021;53.174;18.160;2023-01-30T01:06:13;100474.85;;;0.59;85.43
76229;BME280;65021;53.174;18.160;2023-01-30T01:08:39;100472.89;;;0.60;85.57
76229;BME280;65021;53.174;18.160;2023-01-30T01:11:06;100459.02;;;0.61;85.44
76229;BME280;65021;53.174;18.160;2023-01-30T01:13:33;100452.86;;;0.59;85.47
76229;BME280;65021;53.174;18.160;2023-01-30T01:16:00;100442.58;;;0.57;85.53
76229;BME280;65021;53.174;18.160;2023-01-30T01:18:26;100435.36;;;0.54;85.51
76229;BME280;65021;53.174;18.160;2023-01-30T01:20:53;100429.39;;;0.53;85.56
76229;BME280;65021;53.174;18.160;2023-01-30T01:23:20;100423.99;;;0.56;85.45
76229;BME280;65021;53.174;18.160;2023-01-30T01:25:47;100420.05;;;0.57;85.48
76229;BME280;65021;53.174;18.160;2023-01-30T01:28:16;100420.65;;;0.58;85.47
76229;BME280;65021;53.174;18.160;2023-01-30T01:30:47;100412.58;;;0.58;85.57
76229;BME280;65021;53.174;18.160;2023-01-30T01:33:13;100408.64;;;0.56;85.42
76229;BME280;65021;53.174;18.160;2023-01-30T01:35:40;100400.06;;;0.53;85.60
76229;BME280;65021;53.174;18.160;2023-01-30T01:38:07;100400.92;;;0.52;85.58
76229;BME280;65021;53.174;18.160;2023-01-30T01:40:33;100390.39;;;0.53;85.55
76229;BME280;65021;53.174;18.160;2023-01-30T01:43:23;100377.98;;;0.53;85.56
76229;BME280;65021;53.174;18.160;2023-01-30T01:45:54;100372.56;;;0.54;85.61
76229;BME280;65021;53.174;18.160;2023-01-30T01:48:34;100354.73;;;0.54;85.42
76229;BME280;65021;53.174;18.160;2023-01-30T01:51:04;100344.63;;;0.50;85.56
76229;BME280;65021;53.174;18.160;2023-01-30T01:53:39;100336.02;;;0.48;85.66
76229;BME280;65021;53.174;18.160;2023-01-30T01:56:09;100325.06;;;0.50;85.60
76229;BME280;65021;53.174;18.160;2023-01-30T01:58:47;100314.59;;;0.53;85.61
76229;BME280;65021;53.174;18.160;2023-01-30T02:01:17;100303.70;;;0.54;85.73
76229;BME280;65021;53.174;18.160;2023-01-30T02:03:47;100292.95;;;0.56;85.60
76229;BME280;65021;53.174;18.160;2023-01-30T02:06:15;100279.05;;;0.54;85.62
76229;BME280;65021;53.174;18.160;2023-01-30T02:08:49;100267.08;;;0.51;85.71
76229;BME280;65021;53.174;18.160;2023-01-30T02:11:29;100264.30;;;0.47;85.73
76229;BME280;65021;53.174;18.160;2023-01-30T02:13:59;100260.29;;;0.50;85.80
76229;BME280;65021;53.174;18.160;2023-01-30T02:16:26;100253.48;;;0.51;85.74
76229;BME280;65021;53.174;18.160;2023-01-30T02:18:53;100252.64;;;0.52;85.82
76229;BME280;65021;53.174;18.160;2023-01-30T02:27:06;100229.83;;;0.49;85.53
76229;BME280;65021;53.174;18.160;2023-01-30T02:32:50;100215.98;;;0.49;85.54
76229;BME280;65021;53.174;18.160;2023-01-30T02:41:08;100184.68;;;0.47;85.33
76229;BME280;65021;53.174;18.160;2023-01-30T02:44:02;100183.21;;;0.43;85.28
76229;BME280;65021;53.174;18.160;2023-01-30T02:49:07;100182.90;;;0.44;85.18
76229;BME280;65021;53.174;18.160;2023-01-30T02:51:36;100181.85;;;0.42;85.01
76229;BME280;65021;53.174;18.160;2023-01-30T02:54:05;100180.30;;;0.40;85.05
76229;BME280;65021;53.174;18.160;2023-01-30T02:56:44;100168.08;;;0.36;84.96
76229;BME280;65021;53.174;18.160;2023-01-30T02:59:13;100158.23;;;0.36;85.08
76229;BME280;65021;53.174;18.160;2023-01-30T03:15:03;100135.36;;;0.40;84.91
76229;BME280;65021;53.174;18.160;2023-01-30T03:17:31;100131.64;;;0.43;84.95
76229;BME280;65021;53.174;18.160;2023-01-30T03:19:58;100140.40;;;0.44;84.93
76229;BME280;65021;53.174;18.160;2023-01-30T03:22:25;100141.17;;;0.46;84.81
76229;BME280;65021;53.174;18.160;2023-01-30T03:24:52;100125.52;;;0.45;84.79
76229;BME280;65021;53.174;18.160;2023-01-30T03:27:20;100112.23;;;0.45;84.59
76229;BME280;65021;53.174;18.160;2023-01-30T03:29:47;100113.63;;;0.45;84.62
76229;BME280;65021;53.174;18.160;2023-01-30T03:32:13;100117.03;;;0.46;84.60
76229;BME280;65021;53.174;18.160;2023-01-30T03:34:40;100111.86;;;0.47;84.50
76229;BME280;65021;53.174;18.160;2023-01-30T03:37:07;100113.26;;;0.47;84.56
76229;BME280;65021;53.174;18.160;2023-01-30T03:39:34;100117.00;;;0.47;84.53
76229;BME280;65021;53.174;18.160;2023-01-30T03:42:00;100108.20;;;0.47;84.37
76229;BME280;65021;53.174;18.160;2023-01-30T03:44:27;100098.36;;;0.45;84.28
76229;BME280;65021;53.174;18.160;2023-01-30T03:46:54;100093.81;;;0.45;84.37
76229;BME280;65021;53.174;18.160;2023-01-30T03:49:20;100084.21;;;0.43;84.20
76229;BME280;65021;53.174;18.160;2023-01-30T03:51:47;100073.30;;;0.42;84.29
76229;BME280;65021;53.174;18.160;2023-01-30T03:54:14;100071.20;;;0.41;84.19
76229;BME280;65021;53.174;18.160;2023-01-30T03:56:40;100063.65;;;0.39;84.14
76229;BME280;65021;53.174;18.160;2023-01-30T03:59:07;100062.45;;;0.37;84.15
76229;BME280;65021;53.174;18.160;2023-01-30T04:01:34;100061.14;;;0.35;84.08
76229;BME280;65021;53.174;18.160;2023-01-30T04:04:01;100052.86;;;0.32;84.29
76229;BME280;65021;53.174;18.160;2023-01-30T04:06:27;100042.50;;;0.29;84.42
76229;BME280;65021;53.174;18.160;2023-01-30T04:08:54;100044.49;;;0.27;84.48
76229;BME280;65021;53.174;18.160;2023-01-30T04:11:20;100042.17;;;0.24;84.45
76229;BME280;65021;53.174;18.160;2023-01-30T04:13:47;100037.81;;;0.22;84.64
76229;BME280;65021;53.174;18.160;2023-01-30T04:16:18;100029.80;;;0.19;84.72
76229;BME280;65021;53.174;18.160;2023-01-30T04:18:45;100019.75;;;0.18;84.85
76229;BME280;65021;53.174;18.160;2023-01-30T04:21:12;100009.01;;;0.15;84.76
76229;BME280;65021;53.174;18.160;2023-01-30T04:23:39;99998.75;;;0.10;84.95
76229;BME280;65021;53.174;18.160;2023-01-30T04:26:07;99987.71;;;0.07;84.94
76229;BME280;65021;53.174;18.160;2023-01-30T04:28:34;99982.80;;;0.07;85.09
76229;BME280;65021;53.174;18.160;2023-01-30T04:31:01;99979.81;;;0.08;84.93
76229;BME280;65021;53.174;18.160;2023-01-30T04:33:28;99972.17;;;0.07;85.07
76229;BME280;65021;53.174;18.160;2023-01-30T04:35:56;99973.56;;;0.08;85.08
76229;BME280;65021;53.174;18.160;2023-01-30T04:38:24;99979.70;;;0.06;85.05
76229;BME280;65021;53.174;18.160;2023-01-30T04:40:53;99980.86;;;0.02;85.09
76229;BME280;65021;53.174;18.160;2023-01-30T04:43:21;99976.80;;;-0.02;85.23
76229;BME280;65021;53.174;18.160;2023-01-30T04:45:51;99961.96;;;-0.03;85.10
76229;BME280;65021;53.174;18.160;2023-01-30T04:48:19;99950.56;;;-0.00;85.10
76229;BME280;65021;53.174;18.160;2023-01-30T04:50:48;99940.05;;;0.01;85.01
76229;BME280;65021;53.174;18.160;2023-01-30T04:53:16;99935.52;;;0.02;85.00
76229;BME280;65021;53.174;18.160;2023-01-30T04:55:43;99941.23;;;0.03;85.04
76229;BME280;65021;53.174;18.160;2023-01-30T04:58:10;99949.21;;;0.01;84.91
76229;BME280;65021;53.174;18.160;2023-01-30T05:00:36;99940.80;;;-0.05;85.03
76229;BME280;65021;53.174;18.160;2023-01-30T05:03:06;99929.44;;;-0.09;85.23
76229;BME280;65021;53.174;18.160;2023-01-30T05:05:33;99921.83;;;-0.09;85.20
76229;BME280;65021;53.174;18.160;2023-01-30T05:08:00;99922.44;;;-0.11;85.14
76229;BME280;65021;53.174;18.160;2023-01-30T05:10:27;99910.84;;;-0.11;85.13
76229;BME280;65021;53.174;18.160;2023-01-30T05:12:54;99904.02;;;-0.12;85.23
76229;BME280;65021;53.174;18.160;2023-01-30T05:15:21;99897.05;;;-0.13;85.20
76229;BME280;65021;53.174;18.160;2023-01-30T05:17:47;99893.13;;;-0.15;85.26
76229;BME280;65021;53.174;18.160;2023-01-30T05:20:14;99893.44;;;-0.17;85.08
76229;BME280;65021;53.174;18.160;2023-01-30T05:22:41;99886.67;;;-0.19;85.23
76229;BME280;65021;53.174;18.160;2023-01-30T05:25:08;99875.88;;;-0.17;85.29
76229;BME280;65021;53.174;18.160;2023-01-30T05:27:35;99871.70;;;-0.15;85.27
76229;BME280;65021;53.174;18.160;2023-01-30T05:30:03;99852.36;;;-0.15;85.39
76229;BME280;65021;53.174;18.160;2023-01-30T05:32:30;99844.02;;;-0.15;85.37
76229;BME280;65021;53.174;18.160;2023-01-30T05:34:57;99838.52;;;-0.14;85.35
76229;BME280;65021;53.174;18.160;2023-01-30T05:37:23;99834.11;;;-0.14;85.37
76229;BME280;65021;53.174;18.160;2023-01-30T05:39:51;99829.02;;;-0.18;85.50
76229;BME280;65021;53.174;18.160;2023-01-30T05:42:17;99829.81;;;-0.21;85.64
76229;BME280;65021;53.174;18.160;2023-01-30T05:44:44;99820.04;;;-0.21;85.61
76229;BME280;65021;53.174;18.160;2023-01-30T05:47:11;99817.20;;;-0.22;85.75
76229;BME280;65021;53.174;18.160;2023-01-30T05:49:38;99819.94;;;-0.21;85.53
76229;BME280;65021;53.174;18.160;2023-01-30T05:52:05;99818.86;;;-0.19;85.73
76229;BME280;65021;53.174;18.160;2023-01-30T05:54:33;99811.70;;;-0.21;85.69
76229;BME280;65021;53.174;18.160;2023-01-30T05:57:00;99802.70;;;-0.25;85.76
76229;BME280;65021;53.174;18.160;2023-01-30T05:59:27;99813.31;;;-0.26;85.78
76229;BME280;65021;53.174;18.160;2023-01-30T06:01:54;99819.19;;;-0.26;85.76
76229;BME280;65021;53.174;18.160;2023-01-30T06:04:20;99817.32;;;-0.24;85.88
76229;BME280;65021;53.174;18.160;2023-01-30T06:06:48;99812.19;;;-0.24;85.85
76229;BME280;65021;53.174;18.160;2023-01-30T06:09:16;99806.01;;;-0.24;85.98
76229;BME280;65021;53.174;18.160;2023-01-30T06:11:42;99801.58;;;-0.22;85.84
76229;BME280;65021;53.174;18.160;2023-01-30T06:14:09;99795.66;;;-0.20;85.84
76229;BME280;65021;53.174;18.160;2023-01-30T06:16:39;99785.73;;;-0.18;85.79
76229;BME280;65021;53.174;18.160;2023-01-30T06:19:07;99781.36;;;-0.17;85.78
76229;BME280;65021;53.174;18.160;2023-01-30T06:21:33;99781.99;;;-0.14;85.76
76229;BME280;65021;53.174;18.160;2023-01-30T06:24:00;99781.75;;;-0.13;85.86
76229;BME280;65021;53.174;18.160;2023-01-30T06:26:27;99782.77;;;-0.12;85.74
76229;BME280;65021;53.174;18.160;2023-01-30T06:28:54;99775.59;;;-0.10;85.65
76229;BME280;65021;53.174;18.160;2023-01-30T06:31:21;99769.52;;;-0.08;85.73
76229;BME280;65021;53.174;18.160;2023-01-30T06:33:47;99762.68;;;-0.06;85.72
76229;BME280;65021;53.174;18.160;2023-01-30T06:36:14;99756.31;;;-0.03;85.78
76229;BME280;65021;53.174;18.160;2023-01-30T06:38:41;99754.48;;;-0.01;85.72
76229;BME280;65021;53.174;18.160;2023-01-30T06:41:08;99750.23;;;0.01;85.80
76229;BME280;65021;53.174;18.160;2023-01-30T06:43:34;99759.36;;;-0.00;85.70
76229;BME280;65021;53.174;18.160;2023-01-30T06:46:01;99754.64;;;0.01;85.71
76229;BME280;65021;53.174;18.160;2023-01-30T06:48:28;99756.80;;;0.04;85.67
76229;BME280;65021;53.174;18.160;2023-01-30T06:50:54;99748.86;;;0.05;85.88
76229;BME280;65021;53.174;18.160;2023-01-30T06:53:21;99750.08;;;0.03;86.03
76229;BME280;65021;53.174;18.160;2023-01-30T06:55:50;99745.61;;;0.01;86.20
76229;BME280;65021;53.174;18.160;2023-01-30T06:58:17;99744.77;;;-0.00;86.29
76229;BME280;65021;53.174;18.160;2023-01-30T07:00:43;99746.59;;;0.00;86.39
76229;BME280;65021;53.174;18.160;2023-01-30T07:03:12;99738.77;;;-0.00;86.36
76229;BME280;65021;53.174;18.160;2023-01-30T07:05:40;99733.73;;;-0.01;86.33
76229;BME280;65021;53.174;18.160;2023-01-30T07:08:07;99733.91;;;-0.02;86.36
76229;BME280;65021;53.174;18.160;2023-01-30T07:10:34;99722.82;;;-0.02;86.34
76229;BME280;65021;53.174;18.160;2023-01-30T07:13:02;99714.66;;;-0.02;86.46
76229;BME280;65021;53.174;18.160;2023-01-30T07:15:29;99710.30;;;-0.02;86.53
76229;BME280;65021;53.174;18.160;2023-01-30T07:17:57;99713.28;;;-0.02;86.61
76229;BME280;65021;53.174;18.160;2023-01-30T07:20:23;99713.66;;;-0.02;86.60
76229;BME280;65021;53.174;18.160;2023-01-30T07:22:51;99710.27;;;-0.01;86.53
76229;BME280;65021;53.174;18.160;2023-01-30T07:25:19;99702.02;;;-0.02;86.54
76229;BME280;65021;53.174;18.160;2023-01-30T07:27:54;99699.33;;;-0.02;86.70
76229;BME280;65021;53.174;18.160;2023-01-30T07:30:20;99697.06;;;-0.03;86.62
76229;BME280;65021;53.174;18.160;2023-01-30T07:32:55;99694.62;;;-0.04;86.70
76229;BME280;65021;53.174;18.160;2023-01-30T07:35:24;99693.23;;;-0.03;86.77
76229;BME280;65021;53.174;18.160;2023-01-30T07:37:51;99689.61;;;-0.02;86.86
76229;BME280;65021;53.174;18.160;2023-01-30T07:40:19;99685.17;;;-0.01;86.94
76229;BME280;65021;53.174;18.160;2023-01-30T07:42:59;99688.11;;;-0.01;86.86
76229;BME280;65021;53.174;18.160;2023-01-30T07:45:41;99686.98;;;-0.01;87.01
76229;BME280;65021;53.174;18.160;2023-01-30T07:48:08;99684.09;;;-0.02;86.90
76229;BME280;65021;53.174;18.160;2023-01-30T07:50:35;99681.76;;;-0.04;87.00
76229;BME280;65021;53.174;18.160;2023-01-30T07:53:03;99685.03;;;-0.04;87.18
76229;BME280;65021;53.174;18.160;2023-01-30T07:55:30;99676.56;;;-0.02;87.30
76229;BME280;65021;53.174;18.160;2023-01-30T07:57:57;99671.40;;;0.01;87.18
76229;BME280;65021;53.174;18.160;2023-01-30T08:00:24;99667.88;;;0.04;87.05
76229;BME280;65021;53.174;18.160;2023-01-30T08:02:51;99663.93;;;0.07;87.09
76229;BME280;65021;53.174;18.160;2023-01-30T08:05:18;99656.21;;;0.07;86.97
76229;BME280;65021;53.174;18.160;2023-01-30T08:07:45;99656.64;;;0.11;87.09
76229;BME280;65021;53.174;18.160;2023-01-30T08:10:13;99650.43;;;0.16;87.08
76229;BME280;65021;53.174;18.160;2023-01-30T08:12:40;99657.00;;;0.23;87.03
76229;BME280;65021;53.174;18.160;2023-01-30T08:15:08;99648.27;;;0.29;87.03
76229;BME280;65021;53.174;18.160;2023-01-30T08:17:35;99648.78;;;0.36;86.89
76229;BME280;65021;53.174;18.160;2023-01-30T08:20:03;99646.46;;;0.42;86.87
76229;BME280;65021;53.174;18.160;2023-01-30T08:22:30;99646.65;;;0.47;86.70
76229;BME280;65021;53.174;18.160;2023-01-30T08:24:57;99643.84;;;0.53;86.76
76229;BME280;65021;53.174;18.160;2023-01-30T08:27:23;99645.45;;;0.59;86.67
76229;BME280;65021;53.174;18.160;2023-01-30T08:29:50;99648.13;;;0.62;86.74
76229;BME280;65021;53.174;18.160;2023-01-30T08:32:16;99648.50;;;0.64;86.70
76229;BME280;65021;53.174;18.160;2023-01-30T08:34:43;99649.60;;;0.67;86.66
76229;BME280;65021;53.174;18.160;2023-01-30T08:37:09;99653.52;;;0.69;86.63
76229;BME280;65021;53.174;18.160;2023-01-30T08:39:36;99650.03;;;0.70;86.57
76229;BME280;65021;53.174;18.160;2023-01-30T08:42:03;99648.39;;;0.72;86.59
76229;BME280;65021;53.174;18.160;2023-01-30T08:44:29;99651.12;;;0.82;86.70
76229;BME280;65021;53.174;18.160;2023-01-30T08:46:56;99653.27;;;0.91;86.52
76229;BME280;65021;53.174;18.160;2023-01-30T08:49:22;99648.47;;;0.93;86.49
76229;BME280;65021;53.174;18.160;2023-01-30T08:51:49;99645.48;;;0.94;86.33
76229;BME280;65021;53.174;18.160;2023-01-30T08:54:16;99637.55;;;0.97;86.38
76229;BME280;65021;53.174;18.160;2023-01-30T08:56:42;99635.33;;;1.00;86.28
76229;BME280;65021;53.174;18.160;2023-01-30T08:59:09;99634.43;;;1.05;86.32
76229;BME280;65021;53.174;18.160;2023-01-30T09:01:36;99635.02;;;1.18;86.27
76229;BME280;65021;53.174;18.160;2023-01-30T09:04:03;99640.21;;;1.23;86.25
76229;BME280;65021;53.174;18.160;2023-01-30T09:06:30;99638.77;;;1.27;86.16
76229;BME280;65021;53.174;18.160;2023-01-30T09:08:58;99644.30;;;1.23;86.09
76229;BME280;65021;53.174;18.160;2023-01-30T09:11:25;99644.98;;;1.17;86.11
76229;BME280;65021;53.174;18.160;2023-01-30T09:13:52;99646.60;;;1.13;86.15
76229;BME280;65021;53.174;18.160;2023-01-30T09:16:19;99648.61;;;1.11;86.29
76229;BME280;65021;53.174;18.160;2023-01-30T09:18:46;99645.04;;;1.11;86.25
76229;BME280;65021;53.174;18.160;2023-01-30T09:21:12;99644.17;;;1.20;86.20
76229;BME280;65021;53.174;18.160;2023-01-30T09:23:39;99646.52;;;1.24;86.21
76229;BME280;65021;53.174;18.160;2023-01-30T09:26:06;99636.08;;;1.28;86.19
76229;BME280;65021;53.174;18.160;2023-01-30T09:28:33;99635.38;;;1.37;86.16
76229;BME280;65021;53.174;18.160;2023-01-30T09:31:01;99634.68;;;1.47;86.08
76229;BME280;65021;53.174;18.160;2023-01-30T09:33:27;99625.83;;;1.59;85.89
76229;BME280;65021;53.174;18.160;2023-01-30T09:35:54;99625.36;;;1.69;85.82
76229;BME280;65021;53.174;18.160;2023-01-30T09:38:21;99623.07;;;1.75;85.74
76229;BME280;65021;53.174;18.160;2023-01-30T09:52:07;99607.55;;;2.35;84.99
76229;BME280;65021;53.174;18.160;2023-01-30T09:54:39;99600.36;;;2.42;85.13
76229;BME280;65021;53.174;18.160;2023-01-30T09:57:24;99595.41;;;2.38;84.71
76229;BME280;65021;53.174;18.160;2023-01-30T10:00:23;99594.80;;;2.31;84.93
76229;BME280;65021;53.174;18.160;2023-01-30T10:05:32;99584.27;;;2.14;85.11
76229;BME280;65021;53.174;18.160;2023-01-30T10:11:02;99575.73;;;2.05;85.23
76229;BME280;65021;53.174;18.160;2023-01-30T10:16:32;99566.98;;;1.96;85.17
76229;BME280;65021;53.174;18.160;2023-01-30T10:27:46;99555.70;;;1.95;85.37
76229;BME280;65021;53.174;18.160;2023-01-30T10:30:15;99546.21;;;2.14;85.27
76229;BME280;65021;53.174;18.160;2023-01-30T10:32:46;99542.57;;;2.33;85.03
76229;BME280;65021;53.174;18.160;2023-01-30T10:35:19;99547.23;;;2.45;84.65
76229;BME280;65021;53.174;18.160;2023-01-30T10:40:58;99536.05;;;2.79;84.34
76229;BME280;65021;53.174;18.160;2023-01-30T10:43:37;99529.37;;;2.83;84.21
76229;BME280;65021;53.174;18.160;2023-01-30T10:54:12;99525.52;;;2.95;83.54
76229;BME280;65021;53.174;18.160;2023-01-30T10:59:38;99522.55;;;3.00;83.61
76229;BME280;65021;53.174;18.160;2023-01-30T11:02:31;99517.11;;;2.91;83.61
76229;BME280;65021;53.174;18.160;2023-01-30T11:05:03;99522.41;;;2.90;83.64
76229;BME280;65021;53.174;18.160;2023-01-30T11:07:35;99519.63;;;2.93;83.53
76229;BME280;65021;53.174;18.160;2023-01-30T11:10:13;99517.27;;;2.93;83.68
76229;BME280;65021;53.174;18.160;2023-01-30T11:12:41;99518.82;;;2.98;83.71
76229;BME280;65021;53.174;18.160;2023-01-30T11:15:07;99510.10;;;3.04;83.52
76229;BME280;65021;53.174;18.160;2023-01-30T11:17:41;99510.74;;;2.98;83.46
76229;BME280;65021;53.174;18.160;2023-01-30T11:20:17;99514.48;;;3.11;83.58
76229;BME280;65021;53.174;18.160;2023-01-30T11:22:50;99507.45;;;3.35;83.38
76229;BME280;65021;53.174;18.160;2023-01-30T11:25:19;99505.21;;;3.41;83.14
76229;BME280;65021;53.174;18.160;2023-01-30T11:28:11;99500.21;;;3.35;83.27
76229;BME280;65021;53.174;18.160;2023-01-30T11:30:40;99500.76;;;3.33;83.46
76229;BME280;65021;53.174;18.160;2023-01-30T11:33:13;99495.45;;;3.40;83.19
76229;BME280;65021;53.174;18.160;2023-01-30T11:35:56;99492.63;;;3.40;82.91
76229;BME280;65021;53.174;18.160;2023-01-30T11:38:25;99490.88;;;3.33;82.77
76229;BME280;65021;53.174;18.160;2023-01-30T11:41:16;99493.27;;;3.30;83.05
76229;BME280;65021;53.174;18.160;2023-01-30T11:43:44;99490.53;;;3.39;82.98
76229;BME280;65021;53.174;18.160;2023-01-30T11:46:15;99483.45;;;3.50;82.44
76229;BME280;65021;53.174;18.160;2023-01-30T11:51:14;99467.52;;;3.62;82.52
76229;BME280;65021;53.174;18.160;2023-01-30T11:53:47;99461.48;;;3.64;82.49
76229;BME280;65021;53.174;18.160;2023-01-30T11:56:19;99459.27;;;3.68;82.38
76229;BME280;65021;53.174;18.160;2023-01-30T11:58:55;99462.26;;;3.72;82.31
76229;BME280;65021;53.174;18.160;2023-01-30T12:01:29;99463.30;;;3.76;81.97
76229;BME280;65021;53.174;18.160;2023-01-30T12:03:56;99462.83;;;3.79;81.43
76229;BME280;65021;53.174;18.160;2023-01-30T12:06:44;99458.39;;;3.71;81.85
76229;BME280;65021;53.174;18.160;2023-01-30T12:09:34;99451.91;;;3.74;81.65
76229;BME280;65021;53.174;18.160;2023-01-30T12:12:02;99448.53;;;3.71;81.61
76229;BME280;65021;53.174;18.160;2023-01-30T12:14:41;99453.28;;;3.70;81.46
76229;BME280;65021;53.174;18.160;2023-01-30T12:17:15;99452.96;;;3.79;81.68
76229;BME280;65021;53.174;18.160;2023-01-30T12:20:01;99452.39;;;3.90;81.73
76229;BME280;65021;53.174;18.160;2023-01-30T12:23:07;99455.20;;;3.86;81.40
76229;BME280;65021;53.174;18.160;2023-01-30T12:25:36;99458.70;;;3.81;81.70
76229;BME280;65021;53.174;18.160;2023-01-30T12:28:37;99450.83;;;3.84;81.62
76229;BME280;65021;53.174;18.160;2023-01-30T12:31:15;99457.20;;;3.79;81.58
76229;BME280;65021;53.174;18.160;2023-01-30T12:33:44;99451.08;;;3.65;81.48
76229;BME280;65021;53.174;18.160;2023-01-30T12:44:45;99451.66;;;3.51;81.67
76229;BME280;65021;53.174;18.160;2023-01-30T12:58:38;99413.64;;;3.77;81.66
76229;BME280;65021;53.174;18.160;2023-01-30T13:15:00;99413.52;;;3.93;81.66
76229;BME280;65021;53.174;18.160;2023-01-30T13:23:03;99400.55;;;3.92;81.21
76229;BME280;65021;53.174;18.160;2023-01-30T13:25:58;99399.09;;;3.88;81.53
76229;BME280;65021;53.174;18.160;2023-01-30T13:28:32;99407.08;;;3.87;81.35
76229;BME280;65021;53.174;18.160;2023-01-30T13:31:04;99406.96;;;3.80;81.36
76229;BME280;65021;53.174;18.160;2023-01-30T13:33:37;99403.90;;;3.73;81.49
76229;BME280;65021;53.174;18.160;2023-01-30T13:36:12;99410.34;;;3.67;81.53
76229;BME280;65021;53.174;18.160;2023-01-30T13:39:04;99419.66;;;3.58;81.40
76229;BME280;65021;53.174;18.160;2023-01-30T13:41:38;99425.21;;;3.50;81.72
76229;BME280;65021;53.174;18.160;2023-01-30T13:44:23;99432.40;;;3.44;81.69
76229;BME280;65021;53.174;18.160;2023-01-30T13:46:53;99428.90;;;3.38;81.61
76229;BME280;65021;53.174;18.160;2023-01-30T13:49:33;99431.80;;;3.30;81.70
76229;BME280;65021;53.174;18.160;2023-01-30T13:52:24;99436.48;;;3.21;81.87
76229;BME280;65021;53.174;18.160;2023-01-30T13:57:39;99434.94;;;3.00;82.00
76229;BME280;65021;53.174;18.160;2023-01-30T14:00:27;99433.48;;;2.91;82.19
76229;BME280;65021;53.174;18.160;2023-01-30T14:10:54;99439.06;;;2.87;82.33
76229;BME280;65021;53.174;18.160;2023-01-30T14:13:23;99438.40;;;2.93;82.62
76229;BME280;65021;53.174;18.160;2023-01-30T14:16:02;99431.55;;;2.98;82.56
76229;BME280;65021;53.174;18.160;2023-01-30T14:18:32;99430.05;;;2.96;82.55
76229;BME280;65021;53.174;18.160;2023-01-30T14:21:21;99437.80;;;2.89;82.63
76229;BME280;65021;53.174;18.160;2023-01-30T14:24:19;99431.30;;;2.86;82.62
76229;BME280;65021;53.174;18.160;2023-01-30T14:34:42;99435.90;;;2.83;82.91
76229;BME280;65021;53.174;18.160;2023-01-30T14:40:01;99447.86;;;2.79;83.13
76229;BME280;65021;53.174;18.160;2023-01-30T14:42:29;99454.05;;;2.76;83.18
76229;BME280;65021;53.174;18.160;2023-01-30T14:45:18;99451.69;;;2.76;83.09
76229;BME280;65021;53.174;18.160;2023-01-30T14:51:18;99446.19;;;2.78;83.22
76229;BME280;65021;53.174;18.160;2023-01-30T14:53:59;99445.86;;;2.76;83.12
76229;BME280;65021;53.174;18.160;2023-01-30T15:02:01;99451.56;;;2.67;83.33
76229;BME280;65021;53.174;18.160;2023-01-30T15:04:32;99457.70;;;2.62;83.35
76229;BME280;65021;53.174;18.160;2023-01-30T15:07:18;99455.13;;;2.58;83.33
76229;BME280;65021;53.174;18.160;2023-01-30T15:10:02;99454.26;;;2.53;83.48
76229;BME280;65021;53.174;18.160;2023-01-30T15:31:58;99446.86;;;2.05;83.75
76229;BME280;65021;53.174;18.160;2023-01-30T15:34:29;99450.58;;;2.03;83.79
76229;BME280;65021;53.174;18.160;2023-01-30T15:36:57;99456.23;;;2.03;83.85
76229;BME280;65021;53.174;18.160;2023-01-30T15:39:25;99457.08;;;2.03;83.90
76229;BME280;65021;53.174;18.160;2023-01-30T15:41:58;99452.02;;;2.02;83.88
76229;BME280;65021;53.174;18.160;2023-01-30T15:44:48;99463.08;;;1.99;83.90
76229;BME280;65021;53.174;18.160;2023-01-30T15:50:06;99466.33;;;2.00;84.12
76229;BME280;65021;53.174;18.160;2023-01-30T15:52:40;99466.46;;;1.99;84.10
76229;BME280;65021;53.174;18.160;2023-01-30T15:55:19;99464.72;;;1.96;84.20
76229;BME280;65021;53.174;18.160;2023-01-30T15:57:52;99475.91;;;1.93;84.10
76229;BME280;65021;53.174;18.160;2023-01-30T16:02:52;99483.83;;;1.89;84.23